createdAt,value
2023-05-02T00:01:26.187Z,89.05
2023-05-02T00:03:29.346Z,89.65
2023-05-02T00:05:32.554Z,89.61
2023-05-02T00:07:35.901Z,88.92
2023-05-02T00:09:40.357Z,89.10
2023-05-02T00:11:43.600Z,88.81
2023-05-02T00:13:46.686Z,89.73
2023-05-02T00:15:49.748Z,88.99
2023-05-02T00:17:52.906Z,89.46
2023-05-02T00:19:55.969Z,89.87
2023-05-02T00:21:58.976Z,89.70
2023-05-02T00:24:01.982Z,90.39
2023-05-02T00:26:09.956Z,90.67
2023-05-02T00:28:16.761Z,89.73
2023-05-02T00:30:21.099Z,89.51
2023-05-02T00:32:24.383Z,90.13
2023-05-02T00:34:30.710Z,88.82
2023-05-02T00:36:33.830Z,90.44
2023-05-02T00:38:36.924Z,90.27
2023-05-02T00:40:46.849Z,89.37
2023-05-02T00:42:51.637Z,90.67
2023-05-02T00:44:55.199Z,89.47
2023-05-02T00:46:58.652Z,90.31
2023-05-02T00:49:02.104Z,89.41
2023-05-02T00:51:06.462Z,90.94
2023-05-02T00:53:10.094Z,90.40
2023-05-02T00:55:13.208Z,89.65
2023-05-02T00:57:16.456Z,89.37
2023-05-02T00:59:20.964Z,91.15
2023-05-02T01:01:31.460Z,90.35
2023-05-02T01:03:41.421Z,90.34
2023-05-02T01:05:49.187Z,89.92
2023-05-02T01:08:03.064Z,89.97
2023-05-02T01:10:15.510Z,89.64
2023-05-02T01:12:26.390Z,90.53
2023-05-02T01:14:31.202Z,89.46
2023-05-02T01:16:37.139Z,89.36
2023-05-02T01:18:43.339Z,90.17
2023-05-02T01:20:47.875Z,90.25
2023-05-02T01:22:51.161Z,90.45
2023-05-02T01:25:03.015Z,89.68
2023-05-02T01:27:14.708Z,90.29
2023-05-02T01:29:19.621Z,89.81
2023-05-02T01:31:23.615Z,90.01
2023-05-02T01:33:28.309Z,90.34
2023-05-02T01:35:32.087Z,90.13
2023-05-02T01:37:37.878Z,89.91
2023-05-02T01:39:41.478Z,90.31
2023-05-02T01:41:44.987Z,89.76
2023-05-02T01:43:48.901Z,89.46
2023-05-02T01:45:54.259Z,90.36
2023-05-02T01:47:57.786Z,89.53
2023-05-02T01:50:01.508Z,90.02
2023-05-02T01:52:06.621Z,89.95
2023-05-02T01:54:10.342Z,91.21
2023-05-02T01:56:13.832Z,90.22
2023-05-02T01:58:18.430Z,90.73
2023-05-02T02:00:23.219Z,90.24
2023-05-02T02:02:29.043Z,89.79
2023-05-02T02:04:33.018Z,90.05
2023-05-02T02:06:36.312Z,90.53
2023-05-02T02:08:39.449Z,90.67
2023-05-02T02:10:46.798Z,89.62
2023-05-02T02:12:53.628Z,89.98
2023-05-02T02:14:58.525Z,89.99
2023-05-02T02:17:03.687Z,89.82
2023-05-02T02:19:11.436Z,89.45
2023-05-02T02:21:18.435Z,90.05
2023-05-02T02:23:23.394Z,89.99
2023-05-02T02:25:26.985Z,90.17
2023-05-02T02:27:30.298Z,90.14
2023-05-02T02:29:33.762Z,90.18
2023-05-02T02:31:39.114Z,90.23
2023-05-02T02:33:42.441Z,90.43
2023-05-02T02:35:56.662Z,90.53
2023-05-02T02:38:06.424Z,90.09
2023-05-02T02:40:13.960Z,89.59
2023-05-02T02:42:20.421Z,89.65
2023-05-02T02:44:28.959Z,89.04
2023-05-02T02:46:46.078Z,89.79
2023-05-02T02:48:54.789Z,88.78
2023-05-02T02:51:09.187Z,89.54
2023-05-02T02:53:18.357Z,89.62
2023-05-02T02:55:38.504Z,89.33
2023-05-02T02:57:47.973Z,90.05
2023-05-02T02:59:56.818Z,90.01
2023-05-02T03:02:05.334Z,89.76
2023-05-02T03:04:10.083Z,90.04
2023-05-02T03:06:14.694Z,89.82
2023-05-02T03:08:17.945Z,90.32
2023-05-02T03:10:23.282Z,90.89
2023-05-02T03:12:26.515Z,91.12
2023-05-02T03:14:29.615Z,90.56
2023-05-02T03:16:35.888Z,90.79
2023-05-02T03:18:41.990Z,90.86
2023-05-02T03:20:45.195Z,90.56
2023-05-02T03:22:49.626Z,90.46
2023-05-02T03:24:53.287Z,90.58
2023-05-02T03:26:57.170Z,90.68
2023-05-02T03:29:03.659Z,90.75
2023-05-02T03:31:12.239Z,90.93
2023-05-02T03:33:16.571Z,91.14
2023-05-02T03:35:21.228Z,91.76
2023-05-02T03:37:26.192Z,92.53
2023-05-02T03:39:31.284Z,92.53
2023-05-02T03:41:34.655Z,91.83
2023-05-02T03:43:42.999Z,92.47
2023-05-02T03:45:47.628Z,92.55
2023-05-02T03:47:52.251Z,92.76
2023-05-02T03:49:55.483Z,92.70
2023-05-02T03:51:58.660Z,92.50
2023-05-02T03:54:07.583Z,93.42
2023-05-02T03:56:12.707Z,92.26
2023-05-02T03:58:25.250Z,92.63
2023-05-02T04:00:28.634Z,92.39
2023-05-02T04:02:38.514Z,92.72
2023-05-02T04:04:45.060Z,93.26
2023-05-02T04:06:51.364Z,92.43
2023-05-02T04:08:54.544Z,92.91
2023-05-02T04:10:57.978Z,92.31
2023-05-02T04:13:03.160Z,92.80
2023-05-02T04:15:08.021Z,93.08
2023-05-02T04:17:11.188Z,92.93
2023-05-02T04:19:21.830Z,93.63
2023-05-02T04:21:25.306Z,92.91
2023-05-02T04:23:28.660Z,93.20
2023-05-02T04:25:35.738Z,93.10
2023-05-02T04:27:40.243Z,93.70
2023-05-02T04:29:50.951Z,93.20
2023-05-02T04:31:55.426Z,93.29
2023-05-02T04:34:01.654Z,93.04
2023-05-02T04:36:10.941Z,93.82
2023-05-02T04:38:17.668Z,93.27
2023-05-02T04:40:21.992Z,93.19
2023-05-02T04:42:29.937Z,93.08
2023-05-02T04:44:44.822Z,93.24
2023-05-02T04:46:49.650Z,93.09
2023-05-02T04:48:52.849Z,92.92
2023-05-02T04:50:56.117Z,92.57
2023-05-02T04:52:59.319Z,92.63
2023-05-02T04:55:03.212Z,93.06
2023-05-02T04:57:08.054Z,93.11
2023-05-02T04:59:13.759Z,93.61
2023-05-02T05:01:17.151Z,93.70
2023-05-02T05:03:24.717Z,94.33
2023-05-02T05:05:28.294Z,94.59
2023-05-02T05:07:32.165Z,94.72
2023-05-02T05:09:35.520Z,94.16
2023-05-02T05:11:39.497Z,93.97
2023-05-02T05:13:44.300Z,93.90
2023-05-02T05:15:49.322Z,93.95
2023-05-02T05:17:54.367Z,94.50
2023-05-02T05:19:59.150Z,94.92
2023-05-02T05:22:03.414Z,94.91
2023-05-02T05:24:08.222Z,94.03
2023-05-02T05:26:12.393Z,94.30
2023-05-02T05:28:18.485Z,93.28
2023-05-02T05:30:22.103Z,93.96
2023-05-02T05:32:26.022Z,93.71
2023-05-02T05:34:29.824Z,93.54
2023-05-02T05:36:38.476Z,93.70
2023-05-02T05:38:41.946Z,94.30
2023-05-02T05:40:46.295Z,93.90
2023-05-02T05:42:49.476Z,93.53
2023-05-02T05:44:59.267Z,94.58
2023-05-02T05:47:03.211Z,93.92
2023-05-02T05:49:06.634Z,94.87
2023-05-02T05:51:10.790Z,95.73
2023-05-02T05:53:15.705Z,95.47
2023-05-02T05:55:20.285Z,94.91
2023-05-02T05:57:23.888Z,94.72
2023-05-02T05:59:27.556Z,94.68
2023-05-02T06:01:31.441Z,96.03
2023-05-02T06:03:35.161Z,96.05
2023-05-02T06:05:38.356Z,96.71
2023-05-02T06:07:41.456Z,95.11
2023-05-02T06:09:45.976Z,95.47
2023-05-02T06:11:50.047Z,95.02
2023-05-02T06:13:53.822Z,97.12
2023-05-02T06:16:01.901Z,96.51
2023-05-02T06:18:06.299Z,97.36
2023-05-02T06:20:10.400Z,97.92
2023-05-02T06:22:14.077Z,98.33
2023-05-02T06:24:17.155Z,98.72
2023-05-02T06:26:21.649Z,97.85
2023-05-02T06:28:24.686Z,97.27
2023-05-02T06:30:28.524Z,99.05
2023-05-02T06:32:32.093Z,97.25
2023-05-02T06:34:35.182Z,99.55
2023-05-02T06:36:38.264Z,98.37
2023-05-02T06:38:41.710Z,99.58
2023-05-02T06:40:45.808Z,99.15
2023-05-02T06:42:50.177Z,98.47
2023-05-02T06:44:53.249Z,98.54
2023-05-02T06:46:56.492Z,98.03
2023-05-02T06:48:59.566Z,98.20
2023-05-02T06:51:04.174Z,99.01
2023-05-02T06:53:07.316Z,97.86
2023-05-02T06:55:10.797Z,96.83
2023-05-02T06:57:13.910Z,98.01
2023-05-02T06:59:18.396Z,97.11
2023-05-02T07:01:21.479Z,97.09
2023-05-02T07:03:24.964Z,96.96
2023-05-02T07:05:28.167Z,97.66
2023-05-02T07:07:31.541Z,96.61
2023-05-02T07:09:35.111Z,95.99
2023-05-02T07:11:38.171Z,95.73
2023-05-02T07:13:41.263Z,96.63
2023-05-02T07:15:45.739Z,96.00
2023-05-02T07:17:49.659Z,95.59
2023-05-02T07:19:52.906Z,96.17
2023-05-02T07:21:56.031Z,95.66
2023-05-02T07:23:59.218Z,97.10
2023-05-02T07:26:03.867Z,96.44
2023-05-02T07:28:09.053Z,95.29
2023-05-02T07:30:13.221Z,94.76
2023-05-02T07:32:17.761Z,95.08
2023-05-02T07:34:20.891Z,95.14
2023-05-02T07:36:24.045Z,94.83
2023-05-02T07:38:28.614Z,94.33
2023-05-02T07:40:31.619Z,94.12
2023-05-02T07:42:34.985Z,93.92
2023-05-02T07:44:38.040Z,93.71
2023-05-02T07:46:41.278Z,93.50
2023-05-02T07:48:45.930Z,93.55
2023-05-02T07:50:48.990Z,94.38
2023-05-02T07:52:52.246Z,93.58
2023-05-02T07:54:55.591Z,93.86
2023-05-02T07:57:02.386Z,92.90
2023-05-02T07:59:05.770Z,92.62
2023-05-02T08:01:08.937Z,92.66
2023-05-02T08:03:12.116Z,92.45
2023-05-02T08:05:16.944Z,92.68
2023-05-02T08:07:20.115Z,92.21
2023-05-02T08:09:23.172Z,92.74
2023-05-02T08:11:26.453Z,92.37
2023-05-02T08:13:29.593Z,91.87
2023-05-02T08:15:32.593Z,90.70
2023-05-02T08:17:35.652Z,90.84
2023-05-02T08:19:38.797Z,89.75
2023-05-02T08:21:43.401Z,89.53
2023-05-02T08:23:46.599Z,89.08
2023-05-02T08:25:49.613Z,89.04
2023-05-02T08:27:52.754Z,88.62
2023-05-02T08:29:57.387Z,89.81
2023-05-02T08:32:01.774Z,88.79
2023-05-02T08:34:04.912Z,88.78
2023-05-02T08:36:14.617Z,89.04
2023-05-02T08:38:19.026Z,89.26
2023-05-02T08:40:33.926Z,88.81
2023-05-02T08:42:45.007Z,88.77
2023-05-02T08:44:48.191Z,88.31
2023-05-02T08:46:52.220Z,84.33
2023-05-02T08:48:55.465Z,85.26
2023-05-02T08:50:58.831Z,87.51
2023-05-02T08:53:01.990Z,88.17
2023-05-02T08:55:08.463Z,87.39
2023-05-02T08:57:11.531Z,89.33
2023-05-02T08:59:14.947Z,87.85
2023-05-02T09:01:21.408Z,86.50
2023-05-02T09:03:30.378Z,85.04
2023-05-02T09:05:35.187Z,86.34
2023-05-02T09:07:45.634Z,86.29
2023-05-02T09:09:48.808Z,84.96
2023-05-02T09:11:53.866Z,84.53
2023-05-02T09:13:58.864Z,84.93
2023-05-02T09:16:03.362Z,84.14
2023-05-02T09:18:07.347Z,82.71
2023-05-02T09:20:12.557Z,85.19
2023-05-02T09:22:23.956Z,83.39
2023-05-02T09:24:27.160Z,82.56
2023-05-02T09:26:32.754Z,81.69
2023-05-02T09:28:42.104Z,83.42
2023-05-02T09:30:45.266Z,82.53
2023-05-02T09:32:51.205Z,82.28
2023-05-02T09:35:07.068Z,81.61
2023-05-02T09:37:12.601Z,80.83
2023-05-02T09:39:17.606Z,80.90
2023-05-02T09:41:22.173Z,82.05
2023-05-02T09:43:25.401Z,83.95
2023-05-02T09:45:29.803Z,80.56
2023-05-02T09:47:32.803Z,81.18
2023-05-02T09:49:41.173Z,81.89
2023-05-02T09:51:44.786Z,78.95
2023-05-02T09:53:48.192Z,79.15
2023-05-02T09:56:01.022Z,79.23
2023-05-02T09:58:04.326Z,78.88
2023-05-02T10:00:09.591Z,79.99
2023-05-02T10:02:17.468Z,78.79
2023-05-02T10:04:21.160Z,79.69
2023-05-02T10:06:24.714Z,77.83
2023-05-02T10:08:28.850Z,76.82
2023-05-02T10:10:34.755Z,77.01
2023-05-02T10:12:39.128Z,78.49
2023-05-02T10:14:42.504Z,77.83
2023-05-02T10:16:56.995Z,77.03
2023-05-02T10:19:05.174Z,76.00
2023-05-02T10:21:11.867Z,74.83
2023-05-02T10:23:15.947Z,76.01
2023-05-02T10:25:19.260Z,77.31
2023-05-02T10:27:22.445Z,76.19
2023-05-02T10:29:25.466Z,74.33
2023-05-02T10:31:29.469Z,74.20
2023-05-02T10:33:32.599Z,75.24
2023-05-02T10:35:37.641Z,76.35
2023-05-02T10:37:42.058Z,74.43
2023-05-02T10:39:45.061Z,73.74
2023-05-02T10:41:48.820Z,76.21
2023-05-02T10:43:52.219Z,75.48
2023-05-02T10:45:55.935Z,73.76
2023-05-02T10:48:14.588Z,74.74
2023-05-02T10:50:17.996Z,74.04
2023-05-02T10:52:29.107Z,73.74
2023-05-02T10:54:32.165Z,72.30
2023-05-02T10:56:35.228Z,71.98
2023-05-02T10:58:38.524Z,71.72
2023-05-02T11:00:41.628Z,73.68
2023-05-02T11:02:51.666Z,73.57
2023-05-02T11:05:05.290Z,73.26
2023-05-02T11:07:19.294Z,73.13
2023-05-02T11:09:37.062Z,74.27
2023-05-02T11:11:41.909Z,72.36
2023-05-02T11:13:51.019Z,69.88
2023-05-02T11:16:00.132Z,71.18
2023-05-02T11:18:03.578Z,70.33
2023-05-02T11:20:24.814Z,72.06
2023-05-02T11:22:34.517Z,71.45
2023-05-02T11:24:43.841Z,70.70
2023-05-02T11:26:46.887Z,72.07
2023-05-02T11:28:51.542Z,68.61
2023-05-02T11:30:55.993Z,68.81
2023-05-02T11:33:19.995Z,70.12
2023-05-02T11:35:24.259Z,70.81
2023-05-02T11:37:28.332Z,70.98
2023-05-02T11:39:31.766Z,70.74
2023-05-02T11:41:41.311Z,71.09
2023-05-02T11:43:44.341Z,71.81
2023-05-02T11:45:47.388Z,69.75
2023-05-02T11:47:51.747Z,67.55
2023-05-02T11:49:56.013Z,68.12
2023-05-02T11:52:00.394Z,66.60
2023-05-02T11:54:03.994Z,65.24
2023-05-02T11:56:11.077Z,66.53
2023-05-02T11:58:16.919Z,63.24
2023-05-02T12:00:20.402Z,64.17
2023-05-02T12:02:37.553Z,63.84
2023-05-02T12:04:44.516Z,65.92
2023-05-02T12:06:56.441Z,65.00
2023-05-02T12:09:08.113Z,65.85
2023-05-02T12:11:11.539Z,65.77
2023-05-02T12:13:17.100Z,66.18
2023-05-02T12:15:20.362Z,67.00
2023-05-02T12:17:23.610Z,67.98
2023-05-02T12:19:27.120Z,67.99
2023-05-02T12:21:32.804Z,69.59
2023-05-02T12:23:39.018Z,70.31
2023-05-02T12:25:43.623Z,72.31
2023-05-02T12:28:00.373Z,70.15
2023-05-02T12:30:05.962Z,70.34
2023-05-02T12:32:09.468Z,69.89
2023-05-02T12:34:12.518Z,69.97
2023-05-02T12:36:15.715Z,69.99
2023-05-02T12:38:22.757Z,71.22
2023-05-02T12:40:26.143Z,70.05
2023-05-02T12:42:29.359Z,69.06
2023-05-02T12:44:38.879Z,68.03
2023-05-02T12:47:01.486Z,67.99
2023-05-02T12:49:06.591Z,68.40
2023-05-02T12:51:22.013Z,70.42
2023-05-02T12:53:41.427Z,70.92
2023-05-02T12:55:44.551Z,72.07
2023-05-02T12:57:48.038Z,71.36
2023-05-02T12:59:53.326Z,71.59
2023-05-02T13:01:56.609Z,71.16
2023-05-02T13:04:01.414Z,72.16
2023-05-02T13:06:05.785Z,71.34
2023-05-02T13:08:08.841Z,70.48
2023-05-02T13:10:12.308Z,70.44
2023-05-02T13:12:15.427Z,70.24
2023-05-02T13:14:18.534Z,70.01
2023-05-02T13:16:21.782Z,70.03
2023-05-02T13:18:25.078Z,69.39
2023-05-02T13:20:29.600Z,69.90
2023-05-02T13:22:32.678Z,69.43
2023-05-02T13:24:36.135Z,69.35
2023-05-02T13:26:39.218Z,70.62
2023-05-02T13:28:42.342Z,68.11
2023-05-02T13:30:45.551Z,68.31
2023-05-02T13:32:48.779Z,69.20
2023-05-02T13:34:52.276Z,70.08
2023-05-02T13:36:56.733Z,69.66
2023-05-02T13:38:59.761Z,68.96
2023-05-02T13:41:02.833Z,69.57
2023-05-02T13:43:05.892Z,68.49
2023-05-02T13:45:09.847Z,69.50
2023-05-02T13:47:12.983Z,69.00
2023-05-02T13:49:16.090Z,69.75
2023-05-02T13:51:19.390Z,70.53
2023-05-02T13:53:23.816Z,68.32
2023-05-02T13:55:26.946Z,67.65
2023-05-02T13:57:29.952Z,67.57
2023-05-02T13:59:33.008Z,66.62
2023-05-02T14:01:36.390Z,67.77
2023-05-02T14:03:39.526Z,66.68
2023-05-02T14:05:43.765Z,66.55
2023-05-02T14:07:47.176Z,64.42
2023-05-02T14:09:51.784Z,65.01
2023-05-02T14:11:55.534Z,64.66
2023-05-02T14:13:59.770Z,64.81
2023-05-02T14:16:02.927Z,64.54
2023-05-02T14:18:06.228Z,66.06
2023-05-02T14:20:10.730Z,64.96
2023-05-02T14:22:13.889Z,63.78
2023-05-02T14:24:18.374Z,64.56
2023-05-02T14:26:23.050Z,65.57
2023-05-02T14:28:27.162Z,65.61
2023-05-02T14:30:31.352Z,63.84
2023-05-02T14:32:34.359Z,63.75
2023-05-02T14:34:37.876Z,63.30
2023-05-02T14:36:41.146Z,64.44
2023-05-02T14:38:44.204Z,64.35
2023-05-02T14:40:47.292Z,65.43
2023-05-02T14:42:51.932Z,64.94
2023-05-02T14:44:56.046Z,64.64
2023-05-02T14:47:00.018Z,64.97
2023-05-02T14:49:03.232Z,65.25
2023-05-02T14:51:07.129Z,62.22
2023-05-02T14:53:10.381Z,62.37
2023-05-02T14:55:13.820Z,63.51
2023-05-02T14:57:17.043Z,63.62
2023-05-02T14:59:21.521Z,63.98
2023-05-02T15:01:24.735Z,65.02
2023-05-02T15:03:28.187Z,64.44
2023-05-02T15:05:31.583Z,64.42
2023-05-02T15:07:34.746Z,64.31
2023-05-02T15:09:38.080Z,64.92
2023-05-02T15:11:41.217Z,64.08
2023-05-02T15:13:44.324Z,64.28
2023-05-02T15:15:49.279Z,63.14
2023-05-02T15:17:52.878Z,63.33
2023-05-02T15:19:58.273Z,63.39
2023-05-02T15:22:01.712Z,61.23
2023-05-02T15:24:06.112Z,60.64
2023-05-02T15:26:09.211Z,60.86
2023-05-02T15:28:12.233Z,60.01
2023-05-02T15:30:17.760Z,60.20
2023-05-02T15:32:22.733Z,60.25
2023-05-02T15:34:25.894Z,61.13
2023-05-02T15:36:30.034Z,60.38
2023-05-02T15:38:34.634Z,61.53
2023-05-02T15:40:37.894Z,61.66
2023-05-02T15:42:41.617Z,62.16
2023-05-02T15:44:44.721Z,61.20
2023-05-02T15:46:47.970Z,61.74
2023-05-02T15:48:52.582Z,62.74
2023-05-02T15:50:55.733Z,62.04
2023-05-02T15:52:58.840Z,62.38
2023-05-02T15:55:02.158Z,62.94
2023-05-02T15:57:05.204Z,63.52
2023-05-02T15:59:08.467Z,63.32
2023-05-02T16:01:11.667Z,62.38
2023-05-02T16:03:15.384Z,62.61
2023-05-02T16:05:20.030Z,64.02
2023-05-02T16:07:23.089Z,63.30
2023-05-02T16:09:26.151Z,63.37
2023-05-02T16:11:29.209Z,62.71
2023-05-02T16:13:32.257Z,63.13
2023-05-02T16:15:35.301Z,62.60
2023-05-02T16:17:38.466Z,63.51
2023-05-02T16:19:41.559Z,62.83
2023-05-02T16:21:46.038Z,61.71
2023-05-02T16:23:49.103Z,60.59
2023-05-02T16:25:58.143Z,61.26
2023-05-02T16:28:01.331Z,61.98
2023-05-02T16:30:05.106Z,59.86
2023-05-02T16:32:08.611Z,61.30
2023-05-02T16:34:11.788Z,61.97
2023-05-02T16:36:15.758Z,61.17
2023-05-02T16:38:20.129Z,62.37
2023-05-02T16:40:23.381Z,61.64
2023-05-02T16:42:26.507Z,62.08
2023-05-02T16:44:30.376Z,61.18
2023-05-02T16:46:33.614Z,59.80
2023-05-02T16:48:36.804Z,59.81
2023-05-02T16:50:39.889Z,60.70
2023-05-02T16:52:44.451Z,60.49
2023-05-02T16:54:48.901Z,60.45
2023-05-02T16:56:52.109Z,60.37
2023-05-02T16:58:55.508Z,60.11
2023-05-02T17:01:00.373Z,60.03
2023-05-02T17:03:05.239Z,60.44
2023-05-02T17:05:11.344Z,59.16
2023-05-02T17:07:14.536Z,58.66
2023-05-02T17:09:18.529Z,58.20
2023-05-02T17:11:24.864Z,58.87
2023-05-02T17:13:28.014Z,58.87
2023-05-02T17:15:31.325Z,59.51
2023-05-02T17:17:34.588Z,60.61
2023-05-02T17:19:38.500Z,59.48
2023-05-02T17:21:41.619Z,59.80
2023-05-02T17:23:44.680Z,59.51
2023-05-02T17:25:48.363Z,59.37
2023-05-02T17:27:52.972Z,59.36
2023-05-02T17:29:56.067Z,59.28
2023-05-02T17:32:00.596Z,60.05
2023-05-02T17:34:03.677Z,60.32
2023-05-02T17:36:07.062Z,60.09
2023-05-02T17:38:10.084Z,60.30
2023-05-02T17:40:13.953Z,59.94
2023-05-02T17:42:16.987Z,59.50
2023-05-02T17:44:21.861Z,59.57
2023-05-02T17:46:25.084Z,60.53
2023-05-02T17:48:28.266Z,60.61
2023-05-02T17:50:32.916Z,60.52
2023-05-02T17:52:36.240Z,59.95
2023-05-02T17:54:39.321Z,59.72
2023-05-02T17:56:42.641Z,59.00
2023-05-02T17:58:45.890Z,60.08
2023-05-02T18:00:51.314Z,60.20
2023-05-02T18:02:54.593Z,60.45
2023-05-02T18:05:00.499Z,60.17
2023-05-02T18:07:05.735Z,60.15
2023-05-02T18:09:09.337Z,60.76
2023-05-02T18:11:17.106Z,61.80
2023-05-02T18:13:20.318Z,62.57
2023-05-02T18:15:23.576Z,61.71
2023-05-02T18:17:28.581Z,62.88
2023-05-02T18:19:31.800Z,62.92
2023-05-02T18:21:37.491Z,64.08
2023-05-02T18:23:41.412Z,64.33
2023-05-02T18:25:44.543Z,63.27
2023-05-02T18:27:47.602Z,63.87
2023-05-02T18:29:50.676Z,63.87
2023-05-02T18:31:54.249Z,64.15
2023-05-02T18:33:59.000Z,64.73
2023-05-02T18:36:02.127Z,64.14
2023-05-02T18:38:07.978Z,65.84
2023-05-02T18:40:12.552Z,65.17
2023-05-02T18:42:16.796Z,65.01
2023-05-02T18:44:19.900Z,66.59
2023-05-02T18:46:23.125Z,65.44
2023-05-02T18:48:26.760Z,67.65
2023-05-02T18:50:31.702Z,67.94
2023-05-02T18:52:36.141Z,67.80
2023-05-02T18:54:39.458Z,67.11
2023-05-02T18:56:43.140Z,68.39
2023-05-02T18:58:46.607Z,68.75
2023-05-02T19:00:49.702Z,67.85
2023-05-02T19:02:54.031Z,68.11
2023-05-02T19:04:57.469Z,67.39
2023-05-02T19:07:01.991Z,68.86
2023-05-02T19:09:05.377Z,68.91
2023-05-02T19:11:09.218Z,67.64
2023-05-02T19:13:12.479Z,68.29
2023-05-02T19:15:15.656Z,69.27
2023-05-02T19:17:18.691Z,68.09
2023-05-02T19:19:21.863Z,68.79
2023-05-02T19:21:25.199Z,68.99
2023-05-02T19:23:29.628Z,67.88
2023-05-02T19:25:32.827Z,69.76
2023-05-02T19:27:36.072Z,68.79
2023-05-02T19:29:39.122Z,69.94
2023-05-02T19:31:43.765Z,69.87
2023-05-02T19:33:52.057Z,70.28
2023-05-02T19:35:56.447Z,69.36
2023-05-02T19:37:59.786Z,69.66
2023-05-02T19:40:05.075Z,70.79
2023-05-02T19:42:08.214Z,69.43
2023-05-02T19:44:11.258Z,69.70
2023-05-02T19:46:15.787Z,70.40
2023-05-02T19:48:18.992Z,71.28
2023-05-02T19:50:22.226Z,71.20
2023-05-02T19:52:25.522Z,71.79
2023-05-02T19:54:28.837Z,71.97
2023-05-02T19:56:33.256Z,71.62
2023-05-02T19:58:36.467Z,71.50
2023-05-02T20:00:41.266Z,71.79
2023-05-02T20:02:44.517Z,72.00
2023-05-02T20:04:47.870Z,72.18
2023-05-02T20:06:51.439Z,72.61
2023-05-02T20:08:54.652Z,73.02
2023-05-02T20:10:57.920Z,72.79
2023-05-02T20:13:02.474Z,72.72
2023-05-02T20:15:06.977Z,73.35
2023-05-02T20:17:10.209Z,73.58
2023-05-02T20:19:13.490Z,73.61
2023-05-02T20:21:17.141Z,74.44
2023-05-02T20:23:20.306Z,74.26
2023-05-02T20:25:23.985Z,74.04
2023-05-02T20:27:27.098Z,74.19
2023-05-02T20:29:31.617Z,74.08
2023-05-02T20:31:34.822Z,74.26
2023-05-02T20:33:45.300Z,74.12
2023-05-02T20:35:55.020Z,74.03
2023-05-02T20:37:58.257Z,74.69
2023-05-02T20:40:02.339Z,74.11
2023-05-02T20:42:06.652Z,74.07
2023-05-02T20:44:09.722Z,73.99
2023-05-02T20:46:16.321Z,74.45
2023-05-02T20:48:19.971Z,74.66
2023-05-02T20:50:23.402Z,74.53
2023-05-02T20:52:26.921Z,74.19
2023-05-02T20:54:30.181Z,74.26
2023-05-02T20:56:33.288Z,74.31
2023-05-02T20:58:36.354Z,74.02
2023-05-02T21:00:40.762Z,74.77
2023-05-02T21:02:45.190Z,74.25
2023-05-02T21:04:48.358Z,74.38
2023-05-02T21:06:53.145Z,74.67
2023-05-02T21:09:00.342Z,75.05
2023-05-02T21:11:06.108Z,75.59
2023-05-02T21:13:09.284Z,74.86
2023-05-02T21:15:14.341Z,74.22
2023-05-02T21:17:17.506Z,75.44
2023-05-02T21:19:22.011Z,75.28
2023-05-02T21:21:25.084Z,74.96
2023-05-02T21:23:28.036Z,75.59
2023-05-02T21:25:31.132Z,74.90
2023-05-02T21:27:34.284Z,75.28
2023-05-02T21:29:37.377Z,75.55
2023-05-02T21:31:40.568Z,76.04
2023-05-02T21:33:43.755Z,76.52
2023-05-02T21:35:48.322Z,75.88
2023-05-02T21:37:51.433Z,75.48
2023-05-02T21:39:54.512Z,75.80
2023-05-02T21:41:57.549Z,76.02
2023-05-02T21:44:00.634Z,75.65
2023-05-02T21:46:03.801Z,76.19
2023-05-02T21:48:07.003Z,76.09
2023-05-02T21:50:10.548Z,77.42
2023-05-02T21:52:14.969Z,76.49
2023-05-02T21:54:18.171Z,76.82
2023-05-02T21:56:21.504Z,77.43
2023-05-02T21:58:24.674Z,77.19
2023-05-02T22:00:28.099Z,77.64
2023-05-02T22:02:31.275Z,77.33
2023-05-02T22:04:34.455Z,78.30
2023-05-02T22:06:37.658Z,77.72
2023-05-02T22:08:42.351Z,78.30
2023-05-02T22:10:45.418Z,78.30
2023-05-02T22:12:48.533Z,77.89
2023-05-02T22:14:51.545Z,78.99
2023-05-02T22:16:57.675Z,78.83
2023-05-02T22:19:01.222Z,78.93
2023-05-02T22:21:04.727Z,78.88
2023-05-02T22:23:07.965Z,78.63
2023-05-02T22:25:12.592Z,79.18
2023-05-02T22:27:15.674Z,78.83
2023-05-02T22:29:18.707Z,80.12
2023-05-02T22:31:21.755Z,79.45
2023-05-02T22:33:25.016Z,80.02
2023-05-02T22:35:28.342Z,79.54
2023-05-02T22:37:31.376Z,80.58
2023-05-02T22:39:34.437Z,80.23
2023-05-02T22:41:38.794Z,81.18
2023-05-02T22:43:41.949Z,80.13
2023-05-02T22:45:45.221Z,80.32
2023-05-02T22:47:48.308Z,79.96
2023-05-02T22:49:54.358Z,80.30
2023-05-02T22:51:57.998Z,80.88
2023-05-02T22:54:01.925Z,80.86
2023-05-02T22:56:05.393Z,81.60
2023-05-02T22:58:09.780Z,80.55
2023-05-02T23:00:13.999Z,80.57
2023-05-02T23:02:17.343Z,80.86
2023-05-02T23:04:21.317Z,81.72
2023-05-02T23:06:24.512Z,81.79
2023-05-02T23:08:27.632Z,81.87
2023-05-02T23:10:30.786Z,82.82
2023-05-02T23:12:33.840Z,83.99
2023-05-02T23:14:38.293Z,81.98
2023-05-02T23:16:41.382Z,84.00
2023-05-02T23:18:44.360Z,83.64
2023-05-02T23:20:47.380Z,84.18
2023-05-02T23:22:51.273Z,83.31
2023-05-02T23:24:54.301Z,83.21
2023-05-02T23:26:57.797Z,82.91
2023-05-02T23:29:00.826Z,83.41
2023-05-02T23:31:05.662Z,83.32
2023-05-02T23:33:08.858Z,83.94
2023-05-02T23:35:12.377Z,82.71
2023-05-02T23:37:15.492Z,83.98
2023-05-02T23:39:18.535Z,84.23
2023-05-02T23:41:22.207Z,82.60
2023-05-02T23:43:25.329Z,83.47
2023-05-02T23:45:28.554Z,84.33
2023-05-02T23:47:32.990Z,84.32
2023-05-02T23:49:37.235Z,83.28
2023-05-02T23:51:40.526Z,84.19
2023-05-02T23:53:43.601Z,82.98
2023-05-02T23:55:46.766Z,83.87
2023-05-02T23:57:49.786Z,84.21
2023-05-02T23:59:53.392Z,82.37
